sensor_id;sensor_type;location;lat;lon;timestamp;P1;durP1;ratioP1;P2;durP2;ratioP2
11018;SDS011;5563;52.296;6.806;2023-03-01T00:01:19;8.83;;;6.70;;
11018;SDS011;5563;52.296;6.806;2023-03-01T00:03:55;7.93;;;6.10;;
11018;SDS011;5563;52.296;6.806;2023-03-01T00:06:24;10.93;;;6.60;;
11018;SDS011;5563;52.296;6.806;2023-03-01T00:08:59;9.50;;;6.67;;
11018;SDS011;5563;52.296;6.806;2023-03-01T00:11:34;7.33;;;6.13;;
11018;SDS011;5563;52.296;6.806;2023-03-01T00:14:01;10.73;;;7.40;;
11018;SDS011;5563;52.296;6.806;2023-03-01T00:16:32;11.03;;;7.93;;
11018;SDS011;5563;52.296;6.806;2023-03-01T00:19:11;12.17;;;8.03;;
11018;SDS011;5563;52.296;6.806;2023-03-01T00:21:43;10.17;;;7.40;;
11018;SDS011;5563;52.296;6.806;2023-03-01T00:24:17;9.93;;;7.23;;
11018;SDS011;5563;52.296;6.806;2023-03-01T00:26:45;10.20;;;6.97;;
11018;SDS011;5563;52.296;6.806;2023-03-01T00:29:20;10.33;;;7.30;;
11018;SDS011;5563;52.296;6.806;2023-03-01T00:31:47;8.63;;;6.50;;
11018;SDS011;5563;52.296;6.806;2023-03-01T00:34:21;9.20;;;6.63;;
11018;SDS011;5563;52.296;6.806;2023-03-01T00:36:55;9.03;;;7.13;;
11018;SDS011;5563;52.296;6.806;2023-03-01T00:39:45;8.80;;;6.77;;
11018;SDS011;5563;52.296;6.806;2023-03-01T00:42:15;9.37;;;6.70;;
11018;SDS011;5563;52.296;6.806;2023-03-01T00:44:50;8.63;;;6.70;;
11018;SDS011;5563;52.296;6.806;2023-03-01T00:47:18;8.40;;;6.60;;
11018;SDS011;5563;52.296;6.806;2023-03-01T00:49:45;9.53;;;6.90;;
11018;SDS011;5563;52.296;6.806;2023-03-01T00:52:19;8.33;;;6.90;;
11018;SDS011;5563;52.296;6.806;2023-03-01T00:54:48;8.63;;;6.53;;
11018;SDS011;5563;52.296;6.806;2023-03-01T00:57:24;8.60;;;6.57;;
11018;SDS011;5563;52.296;6.806;2023-03-01T00:59:52;8.40;;;6.40;;
11018;SDS011;5563;52.296;6.806;2023-03-01T01:02:34;8.47;;;6.33;;
11018;SDS011;5563;52.296;6.806;2023-03-01T01:05:03;8.80;;;5.87;;
11018;SDS011;5563;52.296;6.806;2023-03-01T01:07:39;8.63;;;6.10;;
11018;SDS011;5563;52.296;6.806;2023-03-01T01:10:06;7.53;;;5.40;;
11018;SDS011;5563;52.296;6.806;2023-03-01T01:12:45;8.37;;;6.67;;
11018;SDS011;5563;52.296;6.806;2023-03-01T01:15:13;7.20;;;6.07;;
11018;SDS011;5563;52.296;6.806;2023-03-01T01:17:50;9.13;;;6.83;;
11018;SDS011;5563;52.296;6.806;2023-03-01T01:20:18;10.37;;;7.27;;
11018;SDS011;5563;52.296;6.806;2023-03-01T01:22:53;10.53;;;7.13;;
11018;SDS011;5563;52.296;6.806;2023-03-01T01:25:25;12.30;;;7.60;;
11018;SDS011;5563;52.296;6.806;2023-03-01T01:28:00;12.23;;;7.57;;
11018;SDS011;5563;52.296;6.806;2023-03-01T01:30:28;9.97;;;7.03;;
11018;SDS011;5563;52.296;6.806;2023-03-01T01:32:55;12.10;;;7.83;;
11018;SDS011;5563;52.296;6.806;2023-03-01T01:35:29;9.17;;;6.50;;
11018;SDS011;5563;52.296;6.806;2023-03-01T01:37:58;7.53;;;6.30;;
11018;SDS011;5563;52.296;6.806;2023-03-01T01:40:33;9.97;;;6.97;;
11018;SDS011;5563;52.296;6.806;2023-03-01T01:46:02;7.83;;;6.00;;
11018;SDS011;5563;52.296;6.806;2023-03-01T01:49:24;7.00;;;6.30;;
11018;SDS011;5563;52.296;6.806;2023-03-01T01:51:40;6.30;;;5.70;;
11018;SDS011;5563;52.296;6.806;2023-03-01T01:54:19;7.60;;;6.23;;
11018;SDS011;5563;52.296;6.806;2023-03-01T01:56:52;7.67;;;6.37;;
11018;SDS011;5563;52.296;6.806;2023-03-01T01:59:31;7.13;;;5.83;;
11018;SDS011;5563;52.296;6.806;2023-03-01T02:02:07;7.47;;;5.47;;
11018;SDS011;5563;52.296;6.806;2023-03-01T02:04:39;6.63;;;5.23;;
11018;SDS011;5563;52.296;6.806;2023-03-01T02:07:15;7.23;;;5.73;;
11018;SDS011;5563;52.296;6.806;2023-03-01T02:12:55;8.57;;;5.43;;
11018;SDS011;5563;52.296;6.806;2023-03-01T02:15:25;6.67;;;5.60;;
11018;SDS011;5563;52.296;6.806;2023-03-01T02:18:06;8.70;;;5.30;;
11018;SDS011;5563;52.296;6.806;2023-03-01T02:21:04;6.13;;;5.10;;
11018;SDS011;5563;52.296;6.806;2023-03-01T02:23:40;6.60;;;5.47;;
11018;SDS011;5563;52.296;6.806;2023-03-01T02:28:47;7.20;;;5.23;;
11018;SDS011;5563;52.296;6.806;2023-03-01T02:31:22;6.10;;;5.50;;
11018;SDS011;5563;52.296;6.806;2023-03-01T02:34:16;6.60;;;5.23;;
11018;SDS011;5563;52.296;6.806;2023-03-01T02:36:47;7.50;;;6.10;;
11018;SDS011;5563;52.296;6.806;2023-03-01T02:39:36;7.37;;;6.03;;
11018;SDS011;5563;52.296;6.806;2023-03-01T02:42:18;7.03;;;5.80;;
11018;SDS011;5563;52.296;6.806;2023-03-01T02:44:52;6.57;;;5.23;;
11018;SDS011;5563;52.296;6.806;2023-03-01T02:47:27;7.20;;;5.37;;
11018;SDS011;5563;52.296;6.806;2023-03-01T02:50:02;6.70;;;5.63;;
11018;SDS011;5563;52.296;6.806;2023-03-01T02:56:06;7.73;;;5.57;;
11018;SDS011;5563;52.296;6.806;2023-03-01T02:58:40;6.43;;;4.80;;
11018;SDS011;5563;52.296;6.806;2023-03-01T03:01:19;6.13;;;5.30;;
11018;SDS011;5563;52.296;6.806;2023-03-01T03:03:53;6.30;;;5.57;;
11018;SDS011;5563;52.296;6.806;2023-03-01T03:06:24;6.13;;;5.17;;
11018;SDS011;5563;52.296;6.806;2023-03-01T03:09:01;7.00;;;5.83;;
11018;SDS011;5563;52.296;6.806;2023-03-01T03:11:37;5.67;;;4.90;;
11018;SDS011;5563;52.296;6.806;2023-03-01T03:14:07;7.73;;;5.40;;
11018;SDS011;5563;52.296;6.806;2023-03-01T03:16:49;6.93;;;5.60;;
11018;SDS011;5563;52.296;6.806;2023-03-01T03:19:17;6.93;;;5.47;;
11018;SDS011;5563;52.296;6.806;2023-03-01T03:21:53;6.63;;;5.53;;
11018;SDS011;5563;52.296;6.806;2023-03-01T03:24:21;6.50;;;5.23;;
11018;SDS011;5563;52.296;6.806;2023-03-01T03:26:57;6.73;;;5.53;;
11018;SDS011;5563;52.296;6.806;2023-03-01T03:29:25;6.73;;;5.37;;
11018;SDS011;5563;52.296;6.806;2023-03-01T03:32:01;5.97;;;5.37;;
11018;SDS011;5563;52.296;6.806;2023-03-01T03:34:34;6.20;;;5.20;;
11018;SDS011;5563;52.296;6.806;2023-03-01T03:37:09;7.37;;;5.37;;
11018;SDS011;5563;52.296;6.806;2023-03-01T03:39:57;5.57;;;4.90;;
11018;SDS011;5563;52.296;6.806;2023-03-01T03:42:50;5.03;;;4.27;;
11018;SDS011;5563;52.296;6.806;2023-03-01T03:45:26;6.17;;;5.33;;
11018;SDS011;5563;52.296;6.806;2023-03-01T03:47:55;6.27;;;5.40;;
11018;SDS011;5563;52.296;6.806;2023-03-01T03:50:32;6.30;;;4.97;;
11018;SDS011;5563;52.296;6.806;2023-03-01T03:53:03;5.73;;;5.13;;
11018;SDS011;5563;52.296;6.806;2023-03-01T03:55:42;6.03;;;5.40;;
11018;SDS011;5563;52.296;6.806;2023-03-01T03:58:11;6.27;;;4.80;;
11018;SDS011;5563;52.296;6.806;2023-03-01T04:00:47;7.80;;;5.17;;
11018;SDS011;5563;52.296;6.806;2023-03-01T04:03:18;5.83;;;4.47;;
11018;SDS011;5563;52.296;6.806;2023-03-01T04:05:57;6.73;;;4.77;;
11018;SDS011;5563;52.296;6.806;2023-03-01T04:08:36;5.83;;;4.80;;
11018;SDS011;5563;52.296;6.806;2023-03-01T04:11:14;5.40;;;4.80;;
11018;SDS011;5563;52.296;6.806;2023-03-01T04:13:57;5.00;;;4.30;;
11018;SDS011;5563;52.296;6.806;2023-03-01T04:16:33;6.90;;;5.10;;
11018;SDS011;5563;52.296;6.806;2023-03-01T04:19:02;5.87;;;5.20;;
11018;SDS011;5563;52.296;6.806;2023-03-01T04:21:37;5.50;;;4.87;;
11018;SDS011;5563;52.296;6.806;2023-03-01T04:24:06;5.87;;;4.70;;
11018;SDS011;5563;52.296;6.806;2023-03-01T04:26:42;5.60;;;4.87;;
11018;SDS011;5563;52.296;6.806;2023-03-01T04:29:11;6.47;;;5.10;;
11018;SDS011;5563;52.296;6.806;2023-03-01T04:31:47;5.03;;;4.53;;
11018;SDS011;5563;52.296;6.806;2023-03-01T04:34:29;5.80;;;4.50;;
11018;SDS011;5563;52.296;6.806;2023-03-01T04:36:57;4.93;;;4.43;;
11018;SDS011;5563;52.296;6.806;2023-03-01T04:39:41;7.10;;;5.40;;
11018;SDS011;5563;52.296;6.806;2023-03-01T04:42:23;5.93;;;4.93;;
11018;SDS011;5563;52.296;6.806;2023-03-01T04:44:59;6.57;;;5.53;;
11018;SDS011;5563;52.296;6.806;2023-03-01T04:47:28;6.00;;;5.30;;
11018;SDS011;5563;52.296;6.806;2023-03-01T04:50:03;6.13;;;5.17;;
11018;SDS011;5563;52.296;6.806;2023-03-01T04:52:35;5.13;;;4.57;;
11018;SDS011;5563;52.296;6.806;2023-03-01T04:55:12;4.97;;;4.40;;
11018;SDS011;5563;52.296;6.806;2023-03-01T04:57:42;5.43;;;4.73;;
11018;SDS011;5563;52.296;6.806;2023-03-01T05:00:17;6.23;;;4.97;;
11018;SDS011;5563;52.296;6.806;2023-03-01T05:02:51;6.40;;;5.00;;
11018;SDS011;5563;52.296;6.806;2023-03-01T05:05:38;6.27;;;4.70;;
11018;SDS011;5563;52.296;6.806;2023-03-01T05:08:07;6.17;;;4.60;;
11018;SDS011;5563;52.296;6.806;2023-03-01T05:10:51;5.63;;;4.70;;
11018;SDS011;5563;52.296;6.806;2023-03-01T05:13:38;5.47;;;4.83;;
11018;SDS011;5563;52.296;6.806;2023-03-01T05:16:09;5.10;;;4.20;;
11018;SDS011;5563;52.296;6.806;2023-03-01T05:18:44;5.10;;;4.53;;
11018;SDS011;5563;52.296;6.806;2023-03-01T05:21:16;5.70;;;4.27;;
11018;SDS011;5563;52.296;6.806;2023-03-01T05:23:55;4.40;;;4.00;;
11018;SDS011;5563;52.296;6.806;2023-03-01T05:26:25;6.73;;;4.70;;
11018;SDS011;5563;52.296;6.806;2023-03-01T05:29:03;7.00;;;5.23;;
11018;SDS011;5563;52.296;6.806;2023-03-01T05:31:33;5.77;;;4.53;;
11018;SDS011;5563;52.296;6.806;2023-03-01T05:34:07;6.50;;;4.57;;
11018;SDS011;5563;52.296;6.806;2023-03-01T05:36:42;5.87;;;4.67;;
11018;SDS011;5563;52.296;6.806;2023-03-01T05:39:17;4.73;;;4.23;;
11018;SDS011;5563;52.296;6.806;2023-03-01T05:42:00;6.03;;;4.93;;
11018;SDS011;5563;52.296;6.806;2023-03-01T05:44:36;5.93;;;4.73;;
11018;SDS011;5563;52.296;6.806;2023-03-01T05:47:05;4.83;;;4.30;;
11018;SDS011;5563;52.296;6.806;2023-03-01T05:49:42;5.23;;;4.10;;
11018;SDS011;5563;52.296;6.806;2023-03-01T05:52:11;5.77;;;4.63;;
11018;SDS011;5563;52.296;6.806;2023-03-01T05:54:46;5.30;;;4.20;;
11018;SDS011;5563;52.296;6.806;2023-03-01T05:57:15;5.33;;;4.40;;
11018;SDS011;5563;52.296;6.806;2023-03-01T05:59:50;5.50;;;4.20;;
11018;SDS011;5563;52.296;6.806;2023-03-01T06:02:19;5.00;;;4.40;;
11018;SDS011;5563;52.296;6.806;2023-03-01T06:04:55;5.87;;;4.67;;
11018;SDS011;5563;52.296;6.806;2023-03-01T06:07:23;5.27;;;4.40;;
11018;SDS011;5563;52.296;6.806;2023-03-01T06:10:03;5.00;;;4.50;;
11018;SDS011;5563;52.296;6.806;2023-03-01T06:13:02;5.10;;;4.60;;
11018;SDS011;5563;52.296;6.806;2023-03-01T06:15:37;5.43;;;4.60;;
11018;SDS011;5563;52.296;6.806;2023-03-01T06:18:08;5.07;;;4.57;;
11018;SDS011;5563;52.296;6.806;2023-03-01T06:20:44;5.40;;;4.83;;
11018;SDS011;5563;52.296;6.806;2023-03-01T06:23:20;5.67;;;4.93;;
11018;SDS011;5563;52.296;6.806;2023-03-01T06:26:06;5.43;;;4.27;;
11018;SDS011;5563;52.296;6.806;2023-03-01T06:28:44;5.27;;;4.03;;
11018;SDS011;5563;52.296;6.806;2023-03-01T06:31:24;5.50;;;4.53;;
11018;SDS011;5563;52.296;6.806;2023-03-01T06:33:55;8.23;;;4.43;;
11018;SDS011;5563;52.296;6.806;2023-03-01T06:36:35;8.43;;;4.67;;
11018;SDS011;5563;52.296;6.806;2023-03-01T06:39:12;4.53;;;4.07;;
11018;SDS011;5563;52.296;6.806;2023-03-01T06:41:55;6.33;;;4.70;;
11018;SDS011;5563;52.296;6.806;2023-03-01T06:44:32;4.40;;;4.00;;
11018;SDS011;5563;52.296;6.806;2023-03-01T06:47:03;5.70;;;4.93;;
11018;SDS011;5563;52.296;6.806;2023-03-01T06:49:39;7.57;;;4.60;;
11018;SDS011;5563;52.296;6.806;2023-03-01T06:52:09;6.53;;;5.30;;
11018;SDS011;5563;52.296;6.806;2023-03-01T06:54:53;5.13;;;4.53;;
11018;SDS011;5563;52.296;6.806;2023-03-01T07:00:55;5.77;;;5.27;;
11018;SDS011;5563;52.296;6.806;2023-03-01T07:04:24;5.53;;;4.30;;
11018;SDS011;5563;52.296;6.806;2023-03-01T07:31:16;5.47;;;4.53;;
11018;SDS011;5563;52.296;6.806;2023-03-01T07:41:17;6.00;;;4.67;;
11018;SDS011;5563;52.296;6.806;2023-03-01T07:44:11;4.50;;;4.10;;
11018;SDS011;5563;52.296;6.806;2023-03-01T07:46:52;4.83;;;4.30;;
11018;SDS011;5563;52.296;6.806;2023-03-01T07:49:38;6.87;;;5.30;;
11018;SDS011;5563;52.296;6.806;2023-03-01T07:52:26;6.57;;;5.20;;
11018;SDS011;5563;52.296;6.806;2023-03-01T07:55:06;5.13;;;4.63;;
11018;SDS011;5563;52.296;6.806;2023-03-01T07:58:27;5.60;;;4.20;;
11018;SDS011;5563;52.296;6.806;2023-03-01T08:01:29;6.83;;;4.77;;
11018;SDS011;5563;52.296;6.806;2023-03-01T08:04:22;7.03;;;5.43;;
11018;SDS011;5563;52.296;6.806;2023-03-01T08:10:31;5.53;;;4.50;;
11018;SDS011;5563;52.296;6.806;2023-03-01T08:16:44;6.17;;;5.57;;
11018;SDS011;5563;52.296;6.806;2023-03-01T08:19:28;8.93;;;6.10;;
11018;SDS011;5563;52.296;6.806;2023-03-01T08:22:32;6.73;;;5.67;;
11018;SDS011;5563;52.296;6.806;2023-03-01T08:35:24;5.83;;;4.77;;
11018;SDS011;5563;52.296;6.806;2023-03-01T08:38:28;6.53;;;5.80;;
11018;SDS011;5563;52.296;6.806;2023-03-01T08:47:59;6.77;;;6.07;;
11018;SDS011;5563;52.296;6.806;2023-03-01T08:58:05;6.53;;;5.93;;
11018;SDS011;5563;52.296;6.806;2023-03-01T09:11:35;6.37;;;5.13;;
11018;SDS011;5563;52.296;6.806;2023-03-01T09:18:37;6.60;;;5.50;;
11018;SDS011;5563;52.296;6.806;2023-03-01T09:22:37;6.50;;;5.83;;
11018;SDS011;5563;52.296;6.806;2023-03-01T09:26:26;5.50;;;4.57;;
11018;SDS011;5563;52.296;6.806;2023-03-01T09:29:57;6.83;;;5.27;;
11018;SDS011;5563;52.296;6.806;2023-03-01T09:40:08;10.97;;;8.37;;
11018;SDS011;5563;52.296;6.806;2023-03-01T10:38:15;6.13;;;4.23;;
11018;SDS011;5563;52.296;6.806;2023-03-01T10:41:29;5.13;;;4.63;;
11018;SDS011;5563;52.296;6.806;2023-03-01T10:48:19;4.90;;;3.87;;
11018;SDS011;5563;52.296;6.806;2023-03-01T10:58:26;5.05;;;3.78;;
11018;SDS011;5563;52.296;6.806;2023-03-01T11:11:38;5.85;;;3.63;;
11018;SDS011;5563;52.296;6.806;2023-03-01T11:20:42;5.05;;;4.10;;
11018;SDS011;5563;52.296;6.806;2023-03-01T11:23:18;5.00;;;3.90;;
11018;SDS011;5563;52.296;6.806;2023-03-01T11:26:16;6.32;;;4.20;;
11018;SDS011;5563;52.296;6.806;2023-03-01T11:28:58;6.22;;;3.92;;
11018;SDS011;5563;52.296;6.806;2023-03-01T11:31:42;4.80;;;3.75;;
11018;SDS011;5563;52.296;6.806;2023-03-01T11:34:56;6.55;;;3.88;;
11018;SDS011;5563;52.296;6.806;2023-03-01T11:40:49;4.07;;;3.65;;
11018;SDS011;5563;52.296;6.806;2023-03-01T12:10:37;3.50;;;3.20;;
11018;SDS011;5563;52.296;6.806;2023-03-01T12:13:51;3.95;;;3.50;;
11018;SDS011;5563;52.296;6.806;2023-03-01T12:25:54;3.83;;;3.42;;
11018;SDS011;5563;52.296;6.806;2023-03-01T12:31:30;3.65;;;3.15;;
11018;SDS011;5563;52.296;6.806;2023-03-01T12:46:14;3.35;;;2.92;;
11018;SDS011;5563;52.296;6.806;2023-03-01T12:48:54;4.18;;;3.05;;
11018;SDS011;5563;52.296;6.806;2023-03-01T12:51:42;3.88;;;3.33;;
11018;SDS011;5563;52.296;6.806;2023-03-01T12:54:33;3.72;;;2.50;;
11018;SDS011;5563;52.296;6.806;2023-03-01T12:57:30;2.65;;;2.45;;
11018;SDS011;5563;52.296;6.806;2023-03-01T13:06:26;4.00;;;2.92;;
11018;SDS011;5563;52.296;6.806;2023-03-01T13:09:34;3.13;;;2.75;;
11018;SDS011;5563;52.296;6.806;2023-03-01T13:18:00;3.10;;;2.78;;
11018;SDS011;5563;52.296;6.806;2023-03-01T13:23:28;3.05;;;2.58;;
11018;SDS011;5563;52.296;6.806;2023-03-01T13:26:16;3.58;;;2.78;;
11018;SDS011;5563;52.296;6.806;2023-03-01T13:28:54;2.28;;;2.08;;
11018;SDS011;5563;52.296;6.806;2023-03-01T13:34:04;3.25;;;2.50;;
11018;SDS011;5563;52.296;6.806;2023-03-01T13:36:53;4.68;;;2.90;;
11018;SDS011;5563;52.296;6.806;2023-03-01T13:39:44;3.08;;;2.40;;
11018;SDS011;5563;52.296;6.806;2023-03-01T13:48:24;3.00;;;2.42;;
11018;SDS011;5563;52.296;6.806;2023-03-01T13:51:14;3.40;;;2.50;;
11018;SDS011;5563;52.296;6.806;2023-03-01T13:53:43;3.63;;;2.80;;
11018;SDS011;5563;52.296;6.806;2023-03-01T13:56:28;4.45;;;2.83;;
11018;SDS011;5563;52.296;6.806;2023-03-01T13:59:19;3.40;;;2.95;;
11018;SDS011;5563;52.296;6.806;2023-03-01T14:01:58;3.47;;;2.63;;
11018;SDS011;5563;52.296;6.806;2023-03-01T14:04:37;3.35;;;2.85;;
11018;SDS011;5563;52.296;6.806;2023-03-01T14:07:20;3.40;;;2.67;;
11018;SDS011;5563;52.296;6.806;2023-03-01T14:09:52;4.32;;;2.97;;
11018;SDS011;5563;52.296;6.806;2023-03-01T14:12:49;3.90;;;2.88;;
11018;SDS011;5563;52.296;6.806;2023-03-01T14:15:55;3.83;;;3.00;;
11018;SDS011;5563;52.296;6.806;2023-03-01T14:19:00;3.70;;;3.17;;
11018;SDS011;5563;52.296;6.806;2023-03-01T14:24:38;4.20;;;3.08;;
11018;SDS011;5563;52.296;6.806;2023-03-01T14:27:21;3.17;;;2.88;;
11018;SDS011;5563;52.296;6.806;2023-03-01T14:29:57;3.70;;;3.05;;
11018;SDS011;5563;52.296;6.806;2023-03-01T14:32:33;3.90;;;3.17;;
11018;SDS011;5563;52.296;6.806;2023-03-01T14:38:29;3.47;;;3.13;;
11018;SDS011;5563;52.296;6.806;2023-03-01T14:41:10;3.97;;;2.78;;
11018;SDS011;5563;52.296;6.806;2023-03-01T14:46:36;3.20;;;2.90;;
11018;SDS011;5563;52.296;6.806;2023-03-01T14:49:24;4.00;;;2.60;;
11018;SDS011;5563;52.296;6.806;2023-03-01T14:52:02;4.28;;;2.85;;
11018;SDS011;5563;52.296;6.806;2023-03-01T14:54:53;3.72;;;3.00;;
11018;SDS011;5563;52.296;6.806;2023-03-01T14:57:24;4.03;;;2.72;;
11018;SDS011;5563;52.296;6.806;2023-03-01T15:00:03;3.42;;;2.60;;
11018;SDS011;5563;52.296;6.806;2023-03-01T15:02:55;2.83;;;2.53;;
11018;SDS011;5563;52.296;6.806;2023-03-01T15:05:37;3.17;;;2.70;;
11018;SDS011;5563;52.296;6.806;2023-03-01T15:08:11;3.38;;;3.08;;
11018;SDS011;5563;52.296;6.806;2023-03-01T15:10:57;3.30;;;2.67;;
11018;SDS011;5563;52.296;6.806;2023-03-01T15:13:48;3.65;;;3.00;;
11018;SDS011;5563;52.296;6.806;2023-03-01T15:16:31;3.25;;;2.80;;
11018;SDS011;5563;52.296;6.806;2023-03-01T15:19:06;3.05;;;2.72;;
11018;SDS011;5563;52.296;6.806;2023-03-01T15:21:51;3.55;;;3.03;;
11018;SDS011;5563;52.296;6.806;2023-03-01T15:24:23;2.92;;;2.70;;
11018;SDS011;5563;52.296;6.806;2023-03-01T15:27:03;3.70;;;2.92;;
11018;SDS011;5563;52.296;6.806;2023-03-01T15:29:33;3.72;;;3.25;;
11018;SDS011;5563;52.296;6.806;2023-03-01T15:32:30;3.50;;;2.75;;
11018;SDS011;5563;52.296;6.806;2023-03-01T15:41:23;3.60;;;3.30;;
11018;SDS011;5563;52.296;6.806;2023-03-01T15:44:25;3.88;;;3.25;;
11018;SDS011;5563;52.296;6.806;2023-03-01T15:47:28;3.42;;;3.00;;
11018;SDS011;5563;52.296;6.806;2023-03-01T15:50:17;3.30;;;3.00;;
11018;SDS011;5563;52.296;6.806;2023-03-01T15:52:55;4.68;;;3.13;;
11018;SDS011;5563;52.296;6.806;2023-03-01T15:55:33;4.05;;;2.90;;
11018;SDS011;5563;52.296;6.806;2023-03-01T15:58:12;4.40;;;3.30;;
11018;SDS011;5563;52.296;6.806;2023-03-01T16:00:52;4.93;;;3.00;;
11018;SDS011;5563;52.296;6.806;2023-03-01T16:03:33;4.32;;;3.60;;
11018;SDS011;5563;52.296;6.806;2023-03-01T16:06:11;4.07;;;3.20;;
11018;SDS011;5563;52.296;6.806;2023-03-01T16:08:48;3.55;;;3.20;;
11018;SDS011;5563;52.296;6.806;2023-03-01T16:11:25;4.53;;;3.22;;
11018;SDS011;5563;52.296;6.806;2023-03-01T16:14:13;3.63;;;3.33;;
11018;SDS011;5563;52.296;6.806;2023-03-01T16:16:46;4.25;;;3.15;;
11018;SDS011;5563;52.296;6.806;2023-03-01T16:19:28;5.05;;;3.17;;
11018;SDS011;5563;52.296;6.806;2023-03-01T16:22:14;4.75;;;3.08;;
11018;SDS011;5563;52.296;6.806;2023-03-01T16:25:03;4.32;;;3.45;;
11018;SDS011;5563;52.296;6.806;2023-03-01T16:27:35;5.88;;;3.60;;
11018;SDS011;5563;52.296;6.806;2023-03-01T16:30:15;5.30;;;3.63;;
11018;SDS011;5563;52.296;6.806;2023-03-01T16:32:56;4.43;;;3.50;;
11018;SDS011;5563;52.296;6.806;2023-03-01T16:36:01;4.65;;;3.10;;
11018;SDS011;5563;52.296;6.806;2023-03-01T16:38:53;3.97;;;3.58;;
11018;SDS011;5563;52.296;6.806;2023-03-01T16:41:24;3.88;;;3.03;;
11018;SDS011;5563;52.296;6.806;2023-03-01T16:44:00;4.65;;;3.58;;
11018;SDS011;5563;52.296;6.806;2023-03-01T16:46:38;4.53;;;3.20;;
11018;SDS011;5563;52.296;6.806;2023-03-01T16:49:15;4.77;;;3.43;;
11018;SDS011;5563;52.296;6.806;2023-03-01T16:51:54;4.50;;;3.78;;
11018;SDS011;5563;52.296;6.806;2023-03-01T16:54:35;4.50;;;3.30;;
11018;SDS011;5563;52.296;6.806;2023-03-01T16:57:24;4.50;;;3.07;;
11018;SDS011;5563;52.296;6.806;2023-03-01T17:00:00;4.47;;;3.50;;
11018;SDS011;5563;52.296;6.806;2023-03-01T17:02:39;4.53;;;3.53;;
11018;SDS011;5563;52.296;6.806;2023-03-01T17:09:00;4.17;;;3.47;;
11018;SDS011;5563;52.296;6.806;2023-03-01T17:14:50;4.23;;;3.67;;
11018;SDS011;5563;52.296;6.806;2023-03-01T17:17:33;4.07;;;3.67;;
11018;SDS011;5563;52.296;6.806;2023-03-01T17:20:20;4.07;;;3.53;;
11018;SDS011;5563;52.296;6.806;2023-03-01T17:23:11;4.13;;;3.60;;
11018;SDS011;5563;52.296;6.806;2023-03-01T17:25:48;3.97;;;3.53;;
11018;SDS011;5563;52.296;6.806;2023-03-01T17:28:30;4.63;;;4.03;;
11018;SDS011;5563;52.296;6.806;2023-03-01T17:31:08;4.70;;;3.83;;
11018;SDS011;5563;52.296;6.806;2023-03-01T17:33:40;4.73;;;3.60;;
11018;SDS011;5563;52.296;6.806;2023-03-01T17:36:23;5.67;;;4.10;;
11018;SDS011;5563;52.296;6.806;2023-03-01T17:39:03;3.87;;;3.23;;
11018;SDS011;5563;52.296;6.806;2023-03-01T17:41:44;4.83;;;3.83;;
11018;SDS011;5563;52.296;6.806;2023-03-01T17:44:17;4.50;;;3.93;;
11018;SDS011;5563;52.296;6.806;2023-03-01T17:47:11;4.73;;;4.20;;
11018;SDS011;5563;52.296;6.806;2023-03-01T17:49:48;5.33;;;4.27;;
11018;SDS011;5563;52.296;6.806;2023-03-01T17:52:22;6.33;;;4.67;;
11018;SDS011;5563;52.296;6.806;2023-03-01T17:55:18;5.13;;;4.00;;
11018;SDS011;5563;52.296;6.806;2023-03-01T17:57:54;4.50;;;4.03;;
11018;SDS011;5563;52.296;6.806;2023-03-01T18:00:39;4.00;;;3.57;;
11018;SDS011;5563;52.296;6.806;2023-03-01T18:10:30;5.33;;;4.60;;
11018;SDS011;5563;52.296;6.806;2023-03-01T18:13:09;5.70;;;4.70;;
11018;SDS011;5563;52.296;6.806;2023-03-01T18:16:13;5.37;;;4.20;;
11018;SDS011;5563;52.296;6.806;2023-03-01T18:18:43;4.80;;;4.17;;
11018;SDS011;5563;52.296;6.806;2023-03-01T18:24:44;5.83;;;4.30;;
11018;SDS011;5563;52.296;6.806;2023-03-01T18:27:27;4.83;;;4.27;;
11018;SDS011;5563;52.296;6.806;2023-03-01T18:30:04;4.73;;;3.57;;
11018;SDS011;5563;52.296;6.806;2023-03-01T18:32:55;4.40;;;3.67;;
11018;SDS011;5563;52.296;6.806;2023-03-01T18:35:39;5.43;;;4.20;;
11018;SDS011;5563;52.296;6.806;2023-03-01T18:38:23;5.50;;;4.03;;
11018;SDS011;5563;52.296;6.806;2023-03-01T18:40:59;6.13;;;4.33;;
11018;SDS011;5563;52.296;6.806;2023-03-01T18:47:29;4.50;;;3.63;;
11018;SDS011;5563;52.296;6.806;2023-03-01T18:50:09;5.37;;;4.33;;
11018;SDS011;5563;52.296;6.806;2023-03-01T18:52:42;5.73;;;4.60;;
11018;SDS011;5563;52.296;6.806;2023-03-01T18:55:33;5.23;;;4.17;;
11018;SDS011;5563;52.296;6.806;2023-03-01T18:58:09;6.07;;;4.87;;
11018;SDS011;5563;52.296;6.806;2023-03-01T19:01:00;8.83;;;4.90;;
11018;SDS011;5563;52.296;6.806;2023-03-01T19:03:49;5.90;;;4.20;;
11018;SDS011;5563;52.296;6.806;2023-03-01T19:06:32;5.07;;;4.57;;
11018;SDS011;5563;52.296;6.806;2023-03-01T19:09:07;5.50;;;4.97;;
11018;SDS011;5563;52.296;6.806;2023-03-01T19:11:51;7.80;;;5.50;;
11018;SDS011;5563;52.296;6.806;2023-03-01T19:14:35;6.70;;;5.20;;
11018;SDS011;5563;52.296;6.806;2023-03-01T19:17:13;5.93;;;5.20;;
11018;SDS011;5563;52.296;6.806;2023-03-01T19:20:02;5.23;;;4.73;;
11018;SDS011;5563;52.296;6.806;2023-03-01T19:22:41;5.67;;;4.57;;
11018;SDS011;5563;52.296;6.806;2023-03-01T19:25:37;6.10;;;4.73;;
11018;SDS011;5563;52.296;6.806;2023-03-01T19:28:16;6.17;;;5.20;;
11018;SDS011;5563;52.296;6.806;2023-03-01T19:34:04;6.60;;;5.00;;
11018;SDS011;5563;52.296;6.806;2023-03-01T19:36:40;5.70;;;4.53;;
11018;SDS011;5563;52.296;6.806;2023-03-01T19:39:37;6.13;;;4.70;;
11018;SDS011;5563;52.296;6.806;2023-03-01T19:42:12;6.47;;;4.43;;
11018;SDS011;5563;52.296;6.806;2023-03-01T19:44:50;6.40;;;4.63;;
11018;SDS011;5563;52.296;6.806;2023-03-01T19:47:30;5.13;;;4.63;;
11018;SDS011;5563;52.296;6.806;2023-03-01T19:58:18;6.43;;;5.70;;
11018;SDS011;5563;52.296;6.806;2023-03-01T20:01:19;5.93;;;4.93;;
11018;SDS011;5563;52.296;6.806;2023-03-01T20:06:54;5.90;;;4.67;;
11018;SDS011;5563;52.296;6.806;2023-03-01T20:09:38;6.83;;;5.10;;
11018;SDS011;5563;52.296;6.806;2023-03-01T20:12:14;6.47;;;4.93;;
11018;SDS011;5563;52.296;6.806;2023-03-01T20:14:42;6.57;;;5.00;;
11018;SDS011;5563;52.296;6.806;2023-03-01T20:17:26;6.67;;;5.30;;
11018;SDS011;5563;52.296;6.806;2023-03-01T20:29:51;7.33;;;5.70;;
11018;SDS011;5563;52.296;6.806;2023-03-01T20:39:27;7.47;;;6.03;;
11018;SDS011;5563;52.296;6.806;2023-03-01T20:42:12;6.27;;;4.87;;
11018;SDS011;5563;52.296;6.806;2023-03-01T20:44:49;7.97;;;6.00;;
11018;SDS011;5563;52.296;6.806;2023-03-01T20:47:24;8.67;;;6.70;;
11018;SDS011;5563;52.296;6.806;2023-03-01T20:50:20;8.50;;;6.20;;
11018;SDS011;5563;52.296;6.806;2023-03-01T20:53:02;8.33;;;6.30;;
11018;SDS011;5563;52.296;6.806;2023-03-01T20:58:21;7.60;;;5.70;;
11018;SDS011;5563;52.296;6.806;2023-03-01T21:01:10;8.17;;;6.30;;
11018;SDS011;5563;52.296;6.806;2023-03-01T21:03:50;9.37;;;6.87;;
11018;SDS011;5563;52.296;6.806;2023-03-01T21:10:09;9.43;;;6.93;;
11018;SDS011;5563;52.296;6.806;2023-03-01T21:13:34;7.47;;;6.07;;
11018;SDS011;5563;52.296;6.806;2023-03-01T21:28:17;13.57;;;8.83;;
11018;SDS011;5563;52.296;6.806;2023-03-01T21:31:20;12.80;;;9.43;;
11018;SDS011;5563;52.296;6.806;2023-03-01T21:34:03;13.30;;;10.00;;
11018;SDS011;5563;52.296;6.806;2023-03-01T21:36:53;13.17;;;9.63;;
11018;SDS011;5563;52.296;6.806;2023-03-01T21:39:43;14.03;;;10.43;;
11018;SDS011;5563;52.296;6.806;2023-03-01T21:52:52;14.50;;;10.47;;
11018;SDS011;5563;52.296;6.806;2023-03-01T21:55:44;17.20;;;11.53;;
11018;SDS011;5563;52.296;6.806;2023-03-01T22:19:52;20.20;;;13.97;;
11018;SDS011;5563;52.296;6.806;2023-03-01T22:41:52;27.27;;;18.27;;
11018;SDS011;5563;52.296;6.806;2023-03-01T22:44:48;25.60;;;18.20;;
11018;SDS011;5563;52.296;6.806;2023-03-01T22:47:31;29.30;;;19.13;;
11018;SDS011;5563;52.296;6.806;2023-03-01T23:06:04;29.87;;;20.30;;
